sensor_id;sensor_type;location;lat;lon;timestamp;P1;durP1;ratioP1;P2;durP2;ratioP2
68608;SDS011;55581;46.718;7.690;2023-02-15T00:01:51;5.30;;;1.38;;
68608;SDS011;55581;46.718;7.690;2023-02-15T00:04:18;5.72;;;1.52;;
68608;SDS011;55581;46.718;7.690;2023-02-15T00:06:48;5.05;;;1.08;;
68608;SDS011;55581;46.718;7.690;2023-02-15T00:09:16;5.90;;;1.90;;
68608;SDS011;55581;46.718;7.690;2023-02-15T00:11:42;6.22;;;2.20;;
68608;SDS011;55581;46.718;7.690;2023-02-15T00:14:11;4.55;;;1.42;;
68608;SDS011;55581;46.718;7.690;2023-02-15T00:16:45;5.07;;;1.27;;
68608;SDS011;55581;46.718;7.690;2023-02-15T00:19:14;4.22;;;0.93;;
68608;SDS011;55581;46.718;7.690;2023-02-15T00:21:41;3.53;;;0.85;;
68608;SDS011;55581;46.718;7.690;2023-02-15T00:24:08;4.65;;;1.05;;
68608;SDS011;55581;46.718;7.690;2023-02-15T00:26:35;5.15;;;1.10;;
68608;SDS011;55581;46.718;7.690;2023-02-15T00:29:04;4.33;;;1.10;;
68608;SDS011;55581;46.718;7.690;2023-02-15T00:31:32;3.92;;;0.90;;
68608;SDS011;55581;46.718;7.690;2023-02-15T00:34:05;4.10;;;1.10;;
68608;SDS011;55581;46.718;7.690;2023-02-15T00:36:34;4.00;;;1.00;;
68608;SDS011;55581;46.718;7.690;2023-02-15T00:39:00;3.15;;;0.90;;
68608;SDS011;55581;46.718;7.690;2023-02-15T00:41:34;3.33;;;0.73;;
68608;SDS011;55581;46.718;7.690;2023-02-15T00:44:02;3.63;;;0.40;;
68608;SDS011;55581;46.718;7.690;2023-02-15T00:46:28;2.78;;;0.47;;
68608;SDS011;55581;46.718;7.690;2023-02-15T00:48:54;1.77;;;0.22;;
68608;SDS011;55581;46.718;7.690;2023-02-15T00:51:22;1.93;;;0.40;;
68608;SDS011;55581;46.718;7.690;2023-02-15T00:53:48;1.92;;;0.30;;
68608;SDS011;55581;46.718;7.690;2023-02-15T00:56:24;3.67;;;0.50;;
68608;SDS011;55581;46.718;7.690;2023-02-15T00:58:49;2.10;;;0.40;;
68608;SDS011;55581;46.718;7.690;2023-02-15T01:01:16;2.05;;;0.35;;
68608;SDS011;55581;46.718;7.690;2023-02-15T01:03:43;2.75;;;0.40;;
68608;SDS011;55581;46.718;7.690;2023-02-15T01:06:11;2.17;;;0.30;;
68608;SDS011;55581;46.718;7.690;2023-02-15T01:08:41;2.27;;;0.23;;
68608;SDS011;55581;46.718;7.690;2023-02-15T01:11:08;2.83;;;0.40;;
68608;SDS011;55581;46.718;7.690;2023-02-15T01:13:51;2.25;;;0.50;;
68608;SDS011;55581;46.718;7.690;2023-02-15T01:16:19;1.67;;;0.20;;
68608;SDS011;55581;46.718;7.690;2023-02-15T01:18:45;1.87;;;0.40;;
68608;SDS011;55581;46.718;7.690;2023-02-15T01:21:16;4.97;;;1.05;;
68608;SDS011;55581;46.718;7.690;2023-02-15T01:23:45;2.90;;;0.47;;
68608;SDS011;55581;46.718;7.690;2023-02-15T01:26:10;2.30;;;0.47;;
68608;SDS011;55581;46.718;7.690;2023-02-15T01:28:42;2.38;;;0.30;;
68608;SDS011;55581;46.718;7.690;2023-02-15T01:31:09;2.63;;;0.40;;
68608;SDS011;55581;46.718;7.690;2023-02-15T01:33:42;2.65;;;0.40;;
68608;SDS011;55581;46.718;7.690;2023-02-15T01:36:08;1.97;;;0.30;;
68608;SDS011;55581;46.718;7.690;2023-02-15T01:38:36;3.83;;;0.50;;
68608;SDS011;55581;46.718;7.690;2023-02-15T01:41:02;1.58;;;0.20;;
68608;SDS011;55581;46.718;7.690;2023-02-15T01:43:48;3.07;;;0.30;;
68608;SDS011;55581;46.718;7.690;2023-02-15T01:46:19;2.17;;;0.30;;
68608;SDS011;55581;46.718;7.690;2023-02-15T01:48:48;3.60;;;0.43;;
68608;SDS011;55581;46.718;7.690;2023-02-15T01:51:21;2.67;;;0.47;;
68608;SDS011;55581;46.718;7.690;2023-02-15T01:53:54;4.35;;;1.67;;
68608;SDS011;55581;46.718;7.690;2023-02-15T01:56:27;10.03;;;1.50;;
68608;SDS011;55581;46.718;7.690;2023-02-15T01:58:57;5.93;;;1.83;;
68608;SDS011;55581;46.718;7.690;2023-02-15T02:01:27;5.93;;;1.75;;
68608;SDS011;55581;46.718;7.690;2023-02-15T02:06:30;4.70;;;1.60;;
68608;SDS011;55581;46.718;7.690;2023-02-15T02:08:57;6.10;;;1.87;;
68608;SDS011;55581;46.718;7.690;2023-02-15T02:11:24;4.20;;;1.45;;
68608;SDS011;55581;46.718;7.690;2023-02-15T02:13:52;8.00;;;0.77;;
68608;SDS011;55581;46.718;7.690;2023-02-15T02:27:38;5.32;;;0.40;;
68608;SDS011;55581;46.718;7.690;2023-02-15T02:33:12;2.73;;;0.30;;
68608;SDS011;55581;46.718;7.690;2023-02-15T02:38:48;3.42;;;0.50;;
68608;SDS011;55581;46.718;7.690;2023-02-15T02:41:22;3.08;;;0.38;;
68608;SDS011;55581;46.718;7.690;2023-02-15T02:47:04;3.47;;;0.80;;
68608;SDS011;55581;46.718;7.690;2023-02-15T02:49:52;3.45;;;0.82;;
68608;SDS011;55581;46.718;7.690;2023-02-15T02:58:15;5.78;;;0.90;;
68608;SDS011;55581;46.718;7.690;2023-02-15T03:00:51;3.00;;;0.80;;
68608;SDS011;55581;46.718;7.690;2023-02-15T03:05:56;2.60;;;0.40;;
68608;SDS011;55581;46.718;7.690;2023-02-15T03:08:25;2.70;;;0.52;;
68608;SDS011;55581;46.718;7.690;2023-02-15T03:11:03;4.20;;;0.65;;
68608;SDS011;55581;46.718;7.690;2023-02-15T03:13:29;3.03;;;0.40;;
68608;SDS011;55581;46.718;7.690;2023-02-15T03:15:56;2.83;;;0.32;;
68608;SDS011;55581;46.718;7.690;2023-02-15T03:18:44;3.20;;;0.50;;
68608;SDS011;55581;46.718;7.690;2023-02-15T03:21:45;4.05;;;0.30;;
68608;SDS011;55581;46.718;7.690;2023-02-15T03:24:16;3.53;;;0.75;;
68608;SDS011;55581;46.718;7.690;2023-02-15T03:26:47;2.77;;;0.50;;
68608;SDS011;55581;46.718;7.690;2023-02-15T03:29:16;4.03;;;0.77;;
68608;SDS011;55581;46.718;7.690;2023-02-15T03:31:44;1.75;;;0.25;;
68608;SDS011;55581;46.718;7.690;2023-02-15T03:34:17;2.03;;;0.40;;
68608;SDS011;55581;46.718;7.690;2023-02-15T03:36:47;3.33;;;0.40;;
68608;SDS011;55581;46.718;7.690;2023-02-15T03:39:38;1.93;;;0.30;;
68608;SDS011;55581;46.718;7.690;2023-02-15T03:42:13;2.60;;;0.43;;
68608;SDS011;55581;46.718;7.690;2023-02-15T03:47:38;1.35;;;0.15;;
68608;SDS011;55581;46.718;7.690;2023-02-15T03:50:11;3.10;;;0.40;;
68608;SDS011;55581;46.718;7.690;2023-02-15T03:53:07;3.47;;;0.13;;
68608;SDS011;55581;46.718;7.690;2023-02-15T03:55:35;2.08;;;0.20;;
68608;SDS011;55581;46.718;7.690;2023-02-15T03:58:04;1.70;;;0.20;;
68608;SDS011;55581;46.718;7.690;2023-02-15T04:00:49;2.65;;;0.30;;
68608;SDS011;55581;46.718;7.690;2023-02-15T04:03:39;2.78;;;0.40;;
68608;SDS011;55581;46.718;7.690;2023-02-15T04:06:10;1.53;;;0.20;;
68608;SDS011;55581;46.718;7.690;2023-02-15T04:08:39;1.95;;;0.25;;
68608;SDS011;55581;46.718;7.690;2023-02-15T04:11:22;3.30;;;0.30;;
68608;SDS011;55581;46.718;7.690;2023-02-15T04:13:50;2.78;;;0.30;;
68608;SDS011;55581;46.718;7.690;2023-02-15T04:16:21;1.98;;;0.32;;
68608;SDS011;55581;46.718;7.690;2023-02-15T04:18:48;2.80;;;0.57;;
68608;SDS011;55581;46.718;7.690;2023-02-15T04:21:32;2.65;;;0.60;;
68608;SDS011;55581;46.718;7.690;2023-02-15T04:24:16;3.22;;;0.63;;
68608;SDS011;55581;46.718;7.690;2023-02-15T04:27:01;3.63;;;0.63;;
68608;SDS011;55581;46.718;7.690;2023-02-15T04:29:28;2.65;;;0.50;;
68608;SDS011;55581;46.718;7.690;2023-02-15T04:31:54;3.00;;;0.70;;
68608;SDS011;55581;46.718;7.690;2023-02-15T04:34:21;4.10;;;0.70;;
68608;SDS011;55581;46.718;7.690;2023-02-15T04:36:48;3.03;;;0.70;;
68608;SDS011;55581;46.718;7.690;2023-02-15T04:39:15;5.10;;;0.80;;
68608;SDS011;55581;46.718;7.690;2023-02-15T04:41:42;2.97;;;0.60;;
68608;SDS011;55581;46.718;7.690;2023-02-15T04:44:08;3.03;;;0.40;;
68608;SDS011;55581;46.718;7.690;2023-02-15T04:46:34;3.25;;;0.50;;
68608;SDS011;55581;46.718;7.690;2023-02-15T04:48:59;3.30;;;0.63;;
68608;SDS011;55581;46.718;7.690;2023-02-15T04:51:25;3.13;;;0.70;;
68608;SDS011;55581;46.718;7.690;2023-02-15T04:53:51;2.40;;;0.60;;
68608;SDS011;55581;46.718;7.690;2023-02-15T04:56:20;3.43;;;0.70;;
68608;SDS011;55581;46.718;7.690;2023-02-15T04:58:46;4.28;;;0.85;;
68608;SDS011;55581;46.718;7.690;2023-02-15T05:01:11;2.85;;;0.40;;
68608;SDS011;55581;46.718;7.690;2023-02-15T05:03:37;3.47;;;0.67;;
68608;SDS011;55581;46.718;7.690;2023-02-15T05:06:03;4.28;;;0.70;;
68608;SDS011;55581;46.718;7.690;2023-02-15T05:08:29;2.90;;;0.50;;
68608;SDS011;55581;46.718;7.690;2023-02-15T05:10:58;3.65;;;0.60;;
68608;SDS011;55581;46.718;7.690;2023-02-15T05:13:24;4.18;;;0.60;;
68608;SDS011;55581;46.718;7.690;2023-02-15T05:15:51;3.15;;;0.50;;
68608;SDS011;55581;46.718;7.690;2023-02-15T05:18:18;2.43;;;0.57;;
68608;SDS011;55581;46.718;7.690;2023-02-15T05:20:48;3.20;;;0.35;;
68608;SDS011;55581;46.718;7.690;2023-02-15T05:23:18;2.53;;;0.50;;
68608;SDS011;55581;46.718;7.690;2023-02-15T05:25:47;2.95;;;0.43;;
68608;SDS011;55581;46.718;7.690;2023-02-15T05:28:33;2.67;;;0.55;;
68608;SDS011;55581;46.718;7.690;2023-02-15T05:31:10;2.83;;;0.70;;
68608;SDS011;55581;46.718;7.690;2023-02-15T05:33:44;5.93;;;1.67;;
68608;SDS011;55581;46.718;7.690;2023-02-15T05:36:10;7.20;;;2.30;;
68608;SDS011;55581;46.718;7.690;2023-02-15T05:38:36;15.07;;;5.15;;
68608;SDS011;55581;46.718;7.690;2023-02-15T05:41:05;9.32;;;3.67;;
68608;SDS011;55581;46.718;7.690;2023-02-15T05:43:32;7.27;;;3.00;;
68608;SDS011;55581;46.718;7.690;2023-02-15T05:46:01;3.97;;;1.30;;
68608;SDS011;55581;46.718;7.690;2023-02-15T05:48:27;7.47;;;2.72;;
68608;SDS011;55581;46.718;7.690;2023-02-15T05:51:00;7.90;;;2.83;;
68608;SDS011;55581;46.718;7.690;2023-02-15T05:53:28;7.90;;;2.90;;
68608;SDS011;55581;46.718;7.690;2023-02-15T05:55:55;11.67;;;3.97;;
68608;SDS011;55581;46.718;7.690;2023-02-15T05:58:31;6.88;;;2.30;;
68608;SDS011;55581;46.718;7.690;2023-02-15T06:01:06;9.18;;;1.80;;
68608;SDS011;55581;46.718;7.690;2023-02-15T06:03:38;5.38;;;1.80;;
68608;SDS011;55581;46.718;7.690;2023-02-15T06:06:04;3.85;;;0.80;;
68608;SDS011;55581;46.718;7.690;2023-02-15T06:08:33;3.17;;;0.70;;
68608;SDS011;55581;46.718;7.690;2023-02-15T06:10:59;3.63;;;0.55;;
68608;SDS011;55581;46.718;7.690;2023-02-15T06:13:28;14.68;;;4.43;;
68608;SDS011;55581;46.718;7.690;2023-02-15T06:15:54;9.15;;;2.00;;
68608;SDS011;55581;46.718;7.690;2023-02-15T06:18:26;17.55;;;6.05;;
68608;SDS011;55581;46.718;7.690;2023-02-15T06:20:52;16.67;;;6.83;;
68608;SDS011;55581;46.718;7.690;2023-02-15T06:23:17;45.93;;;12.47;;
68608;SDS011;55581;46.718;7.690;2023-02-15T06:25:47;9.33;;;1.83;;
68608;SDS011;55581;46.718;7.690;2023-02-15T06:28:13;7.32;;;0.95;;
68608;SDS011;55581;46.718;7.690;2023-02-15T06:30:39;4.67;;;1.30;;
68608;SDS011;55581;46.718;7.690;2023-02-15T06:33:04;5.13;;;1.80;;
68608;SDS011;55581;46.718;7.690;2023-02-15T06:35:33;6.57;;;2.50;;
68608;SDS011;55581;46.718;7.690;2023-02-15T06:37:59;7.20;;;2.57;;
68608;SDS011;55581;46.718;7.690;2023-02-15T06:40:25;7.40;;;3.05;;
68608;SDS011;55581;46.718;7.690;2023-02-15T06:42:58;7.15;;;2.47;;
68608;SDS011;55581;46.718;7.690;2023-02-15T06:45:26;7.87;;;3.30;;
68608;SDS011;55581;46.718;7.690;2023-02-15T06:47:55;9.55;;;3.85;;
68608;SDS011;55581;46.718;7.690;2023-02-15T06:50:21;10.68;;;3.95;;
68608;SDS011;55581;46.718;7.690;2023-02-15T06:52:47;12.93;;;3.37;;
68608;SDS011;55581;46.718;7.690;2023-02-15T06:55:14;6.40;;;3.00;;
68608;SDS011;55581;46.718;7.690;2023-02-15T06:57:48;8.98;;;3.20;;
68608;SDS011;55581;46.718;7.690;2023-02-15T07:00:20;6.07;;;1.98;;
68608;SDS011;55581;46.718;7.690;2023-02-15T07:02:48;5.07;;;1.37;;
68608;SDS011;55581;46.718;7.690;2023-02-15T07:05:20;4.10;;;1.00;;
68608;SDS011;55581;46.718;7.690;2023-02-15T07:07:49;5.32;;;1.23;;
68608;SDS011;55581;46.718;7.690;2023-02-15T07:10:15;3.97;;;0.63;;
68608;SDS011;55581;46.718;7.690;2023-02-15T07:12:44;2.72;;;0.50;;
68608;SDS011;55581;46.718;7.690;2023-02-15T07:15:12;4.23;;;0.70;;
68608;SDS011;55581;46.718;7.690;2023-02-15T07:17:40;3.63;;;0.85;;
68608;SDS011;55581;46.718;7.690;2023-02-15T07:20:10;3.17;;;0.50;;
68608;SDS011;55581;46.718;7.690;2023-02-15T07:22:38;2.67;;;0.47;;
68608;SDS011;55581;46.718;7.690;2023-02-15T07:25:05;3.57;;;0.70;;
68608;SDS011;55581;46.718;7.690;2023-02-15T07:27:32;3.42;;;0.70;;
68608;SDS011;55581;46.718;7.690;2023-02-15T07:29:58;3.50;;;0.77;;
68608;SDS011;55581;46.718;7.690;2023-02-15T07:32:25;3.67;;;0.82;;
68608;SDS011;55581;46.718;7.690;2023-02-15T07:34:56;6.83;;;0.80;;
68608;SDS011;55581;46.718;7.690;2023-02-15T07:37:30;2.45;;;0.40;;
68608;SDS011;55581;46.718;7.690;2023-02-15T07:39:59;3.22;;;0.63;;
68608;SDS011;55581;46.718;7.690;2023-02-15T07:42:27;2.57;;;0.47;;
68608;SDS011;55581;46.718;7.690;2023-02-15T07:44:55;2.25;;;0.40;;
68608;SDS011;55581;46.718;7.690;2023-02-15T07:47:23;5.30;;;0.70;;
68608;SDS011;55581;46.718;7.690;2023-02-15T07:49:59;4.53;;;0.60;;
68608;SDS011;55581;46.718;7.690;2023-02-15T07:52:25;2.83;;;0.60;;
68608;SDS011;55581;46.718;7.690;2023-02-15T07:54:50;3.20;;;0.60;;
68608;SDS011;55581;46.718;7.690;2023-02-15T07:57:17;3.50;;;0.50;;
68608;SDS011;55581;46.718;7.690;2023-02-15T07:59:47;3.22;;;0.88;;
68608;SDS011;55581;46.718;7.690;2023-02-15T08:02:13;4.53;;;0.98;;
68608;SDS011;55581;46.718;7.690;2023-02-15T08:04:41;5.13;;;0.90;;
68608;SDS011;55581;46.718;7.690;2023-02-15T08:07:07;3.55;;;0.77;;
68608;SDS011;55581;46.718;7.690;2023-02-15T08:09:33;5.05;;;2.45;;
68608;SDS011;55581;46.718;7.690;2023-02-15T08:12:00;8.47;;;3.03;;
68608;SDS011;55581;46.718;7.690;2023-02-15T08:14:27;10.93;;;3.70;;
68608;SDS011;55581;46.718;7.690;2023-02-15T08:16:53;11.48;;;3.50;;
68608;SDS011;55581;46.718;7.690;2023-02-15T08:19:27;9.77;;;3.85;;
68608;SDS011;55581;46.718;7.690;2023-02-15T08:22:04;8.63;;;3.50;;
68608;SDS011;55581;46.718;7.690;2023-02-15T08:24:33;9.02;;;3.25;;
68608;SDS011;55581;46.718;7.690;2023-02-15T08:26:59;7.15;;;2.85;;
68608;SDS011;55581;46.718;7.690;2023-02-15T08:29:31;5.28;;;2.28;;
68608;SDS011;55581;46.718;7.690;2023-02-15T08:31:59;6.05;;;2.60;;
68608;SDS011;55581;46.718;7.690;2023-02-15T08:34:34;9.37;;;3.07;;
68608;SDS011;55581;46.718;7.690;2023-02-15T08:37:02;7.55;;;3.35;;
68608;SDS011;55581;46.718;7.690;2023-02-15T08:39:37;8.27;;;2.75;;
68608;SDS011;55581;46.718;7.690;2023-02-15T08:42:03;7.85;;;3.38;;
68608;SDS011;55581;46.718;7.690;2023-02-15T08:44:30;8.88;;;3.13;;
68608;SDS011;55581;46.718;7.690;2023-02-15T08:46:55;7.40;;;2.70;;
68608;SDS011;55581;46.718;7.690;2023-02-15T08:49:27;9.82;;;3.30;;
68608;SDS011;55581;46.718;7.690;2023-02-15T08:51:53;7.77;;;2.77;;
68608;SDS011;55581;46.718;7.690;2023-02-15T08:54:19;7.18;;;2.95;;
68608;SDS011;55581;46.718;7.690;2023-02-15T08:56:46;9.23;;;2.80;;
68608;SDS011;55581;46.718;7.690;2023-02-15T08:59:24;8.60;;;2.83;;
68608;SDS011;55581;46.718;7.690;2023-02-15T09:01:51;7.25;;;2.78;;
68608;SDS011;55581;46.718;7.690;2023-02-15T09:04:17;7.00;;;2.47;;
68608;SDS011;55581;46.718;7.690;2023-02-15T09:06:44;6.03;;;2.15;;
68608;SDS011;55581;46.718;7.690;2023-02-15T09:09:13;6.50;;;2.72;;
68608;SDS011;55581;46.718;7.690;2023-02-15T09:11:49;7.00;;;2.17;;
68608;SDS011;55581;46.718;7.690;2023-02-15T09:14:19;4.93;;;1.65;;
68608;SDS011;55581;46.718;7.690;2023-02-15T09:16:46;7.17;;;1.60;;
68608;SDS011;55581;46.718;7.690;2023-02-15T09:19:14;5.10;;;1.38;;
68608;SDS011;55581;46.718;7.690;2023-02-15T09:21:43;5.45;;;1.48;;
68608;SDS011;55581;46.718;7.690;2023-02-15T09:24:10;3.78;;;1.30;;
68608;SDS011;55581;46.718;7.690;2023-02-15T09:26:43;13.27;;;1.88;;
68608;SDS011;55581;46.718;7.690;2023-02-15T09:29:12;5.77;;;1.23;;
68608;SDS011;55581;46.718;7.690;2023-02-15T09:31:49;6.03;;;1.30;;
68608;SDS011;55581;46.718;7.690;2023-02-15T09:34:20;5.65;;;1.55;;
68608;SDS011;55581;46.718;7.690;2023-02-15T09:36:47;5.85;;;1.67;;
68608;SDS011;55581;46.718;7.690;2023-02-15T09:39:24;4.55;;;1.38;;
68608;SDS011;55581;46.718;7.690;2023-02-15T09:58:15;6.95;;;2.40;;
68608;SDS011;55581;46.718;7.690;2023-02-15T10:03:49;5.90;;;2.47;;
68608;SDS011;55581;46.718;7.690;2023-02-15T10:09:32;10.43;;;2.40;;
68608;SDS011;55581;46.718;7.690;2023-02-15T10:28:06;16.80;;;4.60;;
68608;SDS011;55581;46.718;7.690;2023-02-15T10:30:51;5.28;;;1.20;;
68608;SDS011;55581;46.718;7.690;2023-02-15T10:33:40;5.97;;;2.00;;
68608;SDS011;55581;46.718;7.690;2023-02-15T10:39:08;4.22;;;1.55;;
68608;SDS011;55581;46.718;7.690;2023-02-15T11:07:16;5.50;;;1.00;;
68608;SDS011;55581;46.718;7.690;2023-02-15T11:12:37;4.57;;;1.10;;
68608;SDS011;55581;46.718;7.690;2023-02-15T11:24:16;4.75;;;1.08;;
68608;SDS011;55581;46.718;7.690;2023-02-15T11:29:41;4.10;;;1.40;;
68608;SDS011;55581;46.718;7.690;2023-02-15T11:32:47;7.27;;;1.90;;
68608;SDS011;55581;46.718;7.690;2023-02-15T11:38:04;5.72;;;1.60;;
68608;SDS011;55581;46.718;7.690;2023-02-15T11:43:14;3.88;;;1.42;;
68608;SDS011;55581;46.718;7.690;2023-02-15T11:45:59;4.03;;;1.40;;
68608;SDS011;55581;46.718;7.690;2023-02-15T11:48:25;3.78;;;1.00;;
68608;SDS011;55581;46.718;7.690;2023-02-15T11:50:58;3.63;;;1.30;;
68608;SDS011;55581;46.718;7.690;2023-02-15T11:53:25;3.90;;;1.40;;
68608;SDS011;55581;46.718;7.690;2023-02-15T11:56:02;3.88;;;1.30;;
68608;SDS011;55581;46.718;7.690;2023-02-15T11:58:57;3.88;;;1.40;;
68608;SDS011;55581;46.718;7.690;2023-02-15T12:01:35;4.25;;;1.38;;
68608;SDS011;55581;46.718;7.690;2023-02-15T12:06:32;5.50;;;2.10;;
68608;SDS011;55581;46.718;7.690;2023-02-15T12:12:33;6.47;;;1.95;;
68608;SDS011;55581;46.718;7.690;2023-02-15T12:14:59;5.13;;;1.67;;
68608;SDS011;55581;46.718;7.690;2023-02-15T12:20:24;11.13;;;2.10;;
68608;SDS011;55581;46.718;7.690;2023-02-15T12:23:03;7.70;;;2.10;;
68608;SDS011;55581;46.718;7.690;2023-02-15T12:25:41;12.48;;;3.00;;
68608;SDS011;55581;46.718;7.690;2023-02-15T12:28:30;7.07;;;2.17;;
68608;SDS011;55581;46.718;7.690;2023-02-15T12:31:02;10.65;;;2.40;;
68608;SDS011;55581;46.718;7.690;2023-02-15T12:33:35;8.27;;;1.95;;
68608;SDS011;55581;46.718;7.690;2023-02-15T12:36:12;4.38;;;1.60;;
68608;SDS011;55581;46.718;7.690;2023-02-15T12:39:26;4.70;;;1.75;;
68608;SDS011;55581;46.718;7.690;2023-02-15T12:41:32;5.77;;;2.17;;
68608;SDS011;55581;46.718;7.690;2023-02-15T12:44:06;9.13;;;2.55;;
68608;SDS011;55581;46.718;7.690;2023-02-15T12:46:35;11.02;;;2.70;;
68608;SDS011;55581;46.718;7.690;2023-02-15T12:49:05;14.27;;;3.00;;
68608;SDS011;55581;46.718;7.690;2023-02-15T12:51:52;8.05;;;2.30;;
68608;SDS011;55581;46.718;7.690;2023-02-15T12:57:01;6.68;;;2.10;;
68608;SDS011;55581;46.718;7.690;2023-02-15T12:59:52;5.70;;;2.00;;
68608;SDS011;55581;46.718;7.690;2023-02-15T13:05:10;8.68;;;2.42;;
68608;SDS011;55581;46.718;7.690;2023-02-15T13:07:56;6.60;;;2.10;;
68608;SDS011;55581;46.718;7.690;2023-02-15T13:10:36;6.82;;;2.42;;
68608;SDS011;55581;46.718;7.690;2023-02-15T13:13:22;6.40;;;2.20;;
68608;SDS011;55581;46.718;7.690;2023-02-15T13:15:52;6.57;;;2.17;;
68608;SDS011;55581;46.718;7.690;2023-02-15T13:21:10;5.32;;;2.33;;
68608;SDS011;55581;46.718;7.690;2023-02-15T13:23:42;5.85;;;2.45;;
68608;SDS011;55581;46.718;7.690;2023-02-15T13:26:18;5.10;;;2.40;;
68608;SDS011;55581;46.718;7.690;2023-02-15T13:28:50;6.70;;;2.33;;
68608;SDS011;55581;46.718;7.690;2023-02-15T13:31:20;6.03;;;2.53;;
68608;SDS011;55581;46.718;7.690;2023-02-15T13:40:06;7.80;;;3.20;;
68608;SDS011;55581;46.718;7.690;2023-02-15T13:51:35;7.07;;;3.25;;
68608;SDS011;55581;46.718;7.690;2023-02-15T13:57:04;6.53;;;2.73;;
68608;SDS011;55581;46.718;7.690;2023-02-15T14:08:04;9.38;;;4.25;;
68608;SDS011;55581;46.718;7.690;2023-02-15T14:13:31;10.95;;;3.92;;
68608;SDS011;55581;46.718;7.690;2023-02-15T14:19:32;10.02;;;4.22;;
68608;SDS011;55581;46.718;7.690;2023-02-15T14:30:34;6.43;;;3.05;;
68608;SDS011;55581;46.718;7.690;2023-02-15T14:35:59;7.60;;;3.10;;
68608;SDS011;55581;46.718;7.690;2023-02-15T14:41:17;9.52;;;4.10;;
68608;SDS011;55581;46.718;7.690;2023-02-15T14:44:13;8.35;;;3.80;;
68608;SDS011;55581;46.718;7.690;2023-02-15T14:49:30;8.02;;;3.30;;
68608;SDS011;55581;46.718;7.690;2023-02-15T14:51:59;8.20;;;3.10;;
68608;SDS011;55581;46.718;7.690;2023-02-15T14:59:26;9.35;;;4.25;;
68608;SDS011;55581;46.718;7.690;2023-02-15T15:04:54;9.40;;;4.30;;
68608;SDS011;55581;46.718;7.690;2023-02-15T15:07:42;8.18;;;3.38;;
68608;SDS011;55581;46.718;7.690;2023-02-15T15:12:44;8.82;;;3.35;;
68608;SDS011;55581;46.718;7.690;2023-02-15T15:15:16;8.32;;;3.92;;
68608;SDS011;55581;46.718;7.690;2023-02-15T15:21:06;7.97;;;3.50;;
68608;SDS011;55581;46.718;7.690;2023-02-15T15:23:40;9.68;;;3.72;;
68608;SDS011;55581;46.718;7.690;2023-02-15T15:26:22;9.35;;;3.70;;
68608;SDS011;55581;46.718;7.690;2023-02-15T15:45:35;9.05;;;3.53;;
68608;SDS011;55581;46.718;7.690;2023-02-15T15:48:31;8.10;;;3.42;;
68608;SDS011;55581;46.718;7.690;2023-02-15T15:51:06;9.67;;;3.63;;
68608;SDS011;55581;46.718;7.690;2023-02-15T15:54:16;8.60;;;3.50;;
68608;SDS011;55581;46.718;7.690;2023-02-15T15:56:46;7.72;;;2.40;;
68608;SDS011;55581;46.718;7.690;2023-02-15T15:59:21;7.15;;;2.42;;
68608;SDS011;55581;46.718;7.690;2023-02-15T16:01:50;6.82;;;2.80;;
68608;SDS011;55581;46.718;7.690;2023-02-15T16:06:57;9.60;;;3.40;;
68608;SDS011;55581;46.718;7.690;2023-02-15T16:09:38;8.23;;;3.17;;
68608;SDS011;55581;46.718;7.690;2023-02-15T16:12:03;8.80;;;3.75;;
68608;SDS011;55581;46.718;7.690;2023-02-15T16:14:38;9.13;;;4.13;;
68608;SDS011;55581;46.718;7.690;2023-02-15T16:17:12;9.15;;;4.18;;
68608;SDS011;55581;46.718;7.690;2023-02-15T16:19:43;11.25;;;3.80;;
68608;SDS011;55581;46.718;7.690;2023-02-15T16:22:12;8.27;;;3.25;;
68608;SDS011;55581;46.718;7.690;2023-02-15T16:30:35;10.85;;;3.53;;
68608;SDS011;55581;46.718;7.690;2023-02-15T16:33:06;11.48;;;4.00;;
68608;SDS011;55581;46.718;7.690;2023-02-15T16:35:55;7.20;;;3.40;;
68608;SDS011;55581;46.718;7.690;2023-02-15T16:41:07;10.03;;;4.33;;
68608;SDS011;55581;46.718;7.690;2023-02-15T16:43:34;7.93;;;3.72;;
68608;SDS011;55581;46.718;7.690;2023-02-15T16:46:12;9.60;;;3.97;;
68608;SDS011;55581;46.718;7.690;2023-02-15T16:48:43;11.07;;;4.60;;
68608;SDS011;55581;46.718;7.690;2023-02-15T16:51:18;11.85;;;4.72;;
68608;SDS011;55581;46.718;7.690;2023-02-15T16:53:47;12.50;;;4.87;;
68608;SDS011;55581;46.718;7.690;2023-02-15T16:56:13;12.07;;;4.65;;
68608;SDS011;55581;46.718;7.690;2023-02-15T16:58:41;8.70;;;4.05;;
68608;SDS011;55581;46.718;7.690;2023-02-15T17:01:11;12.15;;;4.30;;
68608;SDS011;55581;46.718;7.690;2023-02-15T17:03:43;11.80;;;4.85;;
68608;SDS011;55581;46.718;7.690;2023-02-15T17:06:24;12.93;;;4.03;;
68608;SDS011;55581;46.718;7.690;2023-02-15T17:08:51;10.10;;;4.03;;
68608;SDS011;55581;46.718;7.690;2023-02-15T17:11:34;9.77;;;4.53;;
68608;SDS011;55581;46.718;7.690;2023-02-15T17:19:26;14.37;;;4.63;;
68608;SDS011;55581;46.718;7.690;2023-02-15T17:21:58;8.73;;;3.63;;
68608;SDS011;55581;46.718;7.690;2023-02-15T17:27:02;12.23;;;4.32;;
68608;SDS011;55581;46.718;7.690;2023-02-15T17:29:38;12.00;;;4.22;;
68608;SDS011;55581;46.718;7.690;2023-02-15T17:32:18;11.10;;;3.80;;
68608;SDS011;55581;46.718;7.690;2023-02-15T17:37:48;11.85;;;4.10;;
68608;SDS011;55581;46.718;7.690;2023-02-15T17:40:18;10.27;;;4.07;;
68608;SDS011;55581;46.718;7.690;2023-02-15T17:42:51;9.43;;;4.38;;
68608;SDS011;55581;46.718;7.690;2023-02-15T17:45:17;9.83;;;3.60;;
68608;SDS011;55581;46.718;7.690;2023-02-15T17:47:46;9.43;;;3.35;;
68608;SDS011;55581;46.718;7.690;2023-02-15T17:50:23;11.95;;;3.80;;
68608;SDS011;55581;46.718;7.690;2023-02-15T17:52:51;9.68;;;3.35;;
68608;SDS011;55581;46.718;7.690;2023-02-15T17:55:20;9.40;;;4.00;;
68608;SDS011;55581;46.718;7.690;2023-02-15T17:58:09;10.57;;;4.40;;
68608;SDS011;55581;46.718;7.690;2023-02-15T18:00:41;9.38;;;3.60;;
68608;SDS011;55581;46.718;7.690;2023-02-15T18:06:31;8.55;;;3.65;;
68608;SDS011;55581;46.718;7.690;2023-02-15T18:09:18;9.48;;;3.92;;
68608;SDS011;55581;46.718;7.690;2023-02-15T18:12:17;10.13;;;4.13;;
68608;SDS011;55581;46.718;7.690;2023-02-15T18:14:43;11.15;;;4.30;;
68608;SDS011;55581;46.718;7.690;2023-02-15T18:17:10;10.30;;;4.37;;
68608;SDS011;55581;46.718;7.690;2023-02-15T18:19:38;8.87;;;4.00;;
68608;SDS011;55581;46.718;7.690;2023-02-15T18:22:14;9.60;;;4.10;;
68608;SDS011;55581;46.718;7.690;2023-02-15T18:24:42;13.00;;;4.57;;
68608;SDS011;55581;46.718;7.690;2023-02-15T18:27:09;10.00;;;4.45;;
68608;SDS011;55581;46.718;7.690;2023-02-15T18:29:36;10.25;;;4.05;;
68608;SDS011;55581;46.718;7.690;2023-02-15T18:32:02;10.60;;;4.67;;
68608;SDS011;55581;46.718;7.690;2023-02-15T18:34:40;9.18;;;4.15;;
68608;SDS011;55581;46.718;7.690;2023-02-15T18:37:11;10.55;;;4.30;;
68608;SDS011;55581;46.718;7.690;2023-02-15T18:39:43;9.80;;;4.30;;
68608;SDS011;55581;46.718;7.690;2023-02-15T18:44:47;11.48;;;3.85;;
68608;SDS011;55581;46.718;7.690;2023-02-15T18:47:14;9.18;;;3.80;;
68608;SDS011;55581;46.718;7.690;2023-02-15T18:49:39;11.20;;;4.07;;
68608;SDS011;55581;46.718;7.690;2023-02-15T18:52:08;10.48;;;4.47;;
68608;SDS011;55581;46.718;7.690;2023-02-15T18:54:42;9.30;;;3.90;;
68608;SDS011;55581;46.718;7.690;2023-02-15T18:57:09;16.02;;;4.72;;
68608;SDS011;55581;46.718;7.690;2023-02-15T18:59:38;10.40;;;4.80;;
68608;SDS011;55581;46.718;7.690;2023-02-15T19:02:14;10.15;;;3.70;;
68608;SDS011;55581;46.718;7.690;2023-02-15T19:04:44;9.88;;;3.83;;
68608;SDS011;55581;46.718;7.690;2023-02-15T19:07:18;8.00;;;3.38;;
68608;SDS011;55581;46.718;7.690;2023-02-15T19:09:48;10.05;;;3.75;;
68608;SDS011;55581;46.718;7.690;2023-02-15T19:12:16;7.73;;;3.40;;
68608;SDS011;55581;46.718;7.690;2023-02-15T19:14:43;9.73;;;3.15;;
68608;SDS011;55581;46.718;7.690;2023-02-15T19:17:16;8.50;;;3.97;;
68608;SDS011;55581;46.718;7.690;2023-02-15T19:19:45;10.48;;;3.63;;